Time;durP1;ratioP1;P1;durP2;ratioP2;P2;SDS_P1;SDS_P2;PMS_P1;PMS_P2;Temp;Humidity;BMP_temperature;BMP_pressure;BME280_temperature;BME280_humidity;BME280_pressure;Samples;Min_cycle;Max_cycle;Signal;HPM_P1;HPM_P2
2022/04/16 00:00:55;;;;;;;8.85;4.50;;;;;;;;;;5005666;28;20054;-62
2022/04/16 00:03:22;;;;;;;8.02;4.35;;;;;;;;;;5029440;28;20160;-62
2022/04/16 00:05:51;;;;;;;10.48;3.88;;;;;;;;;;5010726;28;20136;-57
2022/04/16 00:08:20;;;;;;;10.05;4.93;;;;;;;;;;5004759;28;20073;-59
2022/04/16 00:10:46;;;;;;;11.20;4.22;;;;;;;;;;5011407;28;20053;-60
2022/04/16 00:13:13;;;;;;;11.63;4.82;;;;;;;;;;5005056;28;20057;-59
2022/04/16 00:15:40;;;;;;;8.88;4.55;;;;;;;;;;5011132;28;20053;-59
2022/04/16 00:18:07;;;;;;;10.17;5.17;;;;;;;;;;5009098;28;20054;-57
2022/04/16 00:20:35;;;;;;;7.53;3.92;;;;;;;;;;5014241;28;20060;-59
2022/04/16 00:23:01;;;;;;;8.57;4.22;;;;;;;;;;5025155;28;20060;-58
2022/04/16 00:25:33;;;;;;;13.68;5.75;;;;;;;;;;5014407;28;20132;-57
2022/04/16 00:27:59;;;;;;;10.90;5.00;;;;;;;;;;5023216;28;20136;-56
2022/04/16 00:30:26;;;;;;;12.40;5.82;;;;;;;;;;5014626;28;20053;-57
2022/04/16 00:32:55;;;;;;;15.10;6.15;;;;;;;;;;5017897;28;20046;-54
2022/04/16 00:35:23;;;;;;;7.85;4.20;;;;;;;;;;5014256;28;20121;-54
2022/04/16 00:37:49;;;;;;;12.93;5.07;;;;;;;;;;5016575;28;20041;-59
2022/04/16 00:40:16;;;;;;;9.07;4.38;;;;;;;;;;5035515;28;20343;-58
2022/04/16 00:42:45;;;;;;;11.65;4.40;;;;;;;;;;5027953;28;20186;-58
2022/04/16 00:45:12;;;;;;;10.85;5.38;;;;;;;;;;5034004;28;20057;-62
2022/04/16 00:47:39;;;;;;;10.25;5.32;;;;;;;;;;5045712;28;20127;-62
2022/04/16 00:50:08;;;;;;;11.80;6.28;;;;;;;;;;5049067;28;20080;-58
2022/04/16 00:52:35;;;;;;;8.65;4.30;;;;;;;;;;5033498;28;20064;-61
2022/04/16 00:55:05;;;;;;;12.45;5.70;;;;;;;;;;5024235;28;20060;-58
2022/04/16 00:57:31;;;;;;;7.63;4.10;;;;;;;;;;5030070;28;20049;-59
2022/04/16 01:00:01;;;;;;;9.43;4.63;;;;;;;;;;5026938;28;20085;-59
2022/04/16 01:02:27;;;;;;;12.32;5.20;;;;;;;;;;5033241;28;20126;-62
2022/04/16 01:04:57;;;;;;;8.40;4.00;;;;;;;;;;5015496;28;20045;-57
2022/04/16 01:07:23;;;;;;;11.55;4.03;;;;;;;;;;5030387;28;20057;-60
2022/04/16 01:09:50;;;;;;;10.07;4.60;;;;;;;;;;5031347;28;20063;-60
2022/04/16 01:12:17;;;;;;;8.75;4.30;;;;;;;;;;5030104;28;20061;-59
2022/04/16 01:14:45;;;;;;;7.60;3.67;;;;;;;;;;5016634;28;20052;-58
2022/04/16 01:17:13;;;;;;;9.10;4.30;;;;;;;;;;5033043;28;20057;-58
2022/04/16 01:19:40;;;;;;;9.60;4.03;;;;;;;;;;5025824;28;20056;-63
2022/04/16 01:22:07;;;;;;;13.82;6.03;;;;;;;;;;5032281;28;20065;-59
2022/04/16 01:24:37;;;;;;;11.13;4.45;;;;;;;;;;5027037;28;20049;-61
2022/04/16 01:27:04;;;;;;;11.13;5.18;;;;;;;;;;5032843;28;20048;-61
2022/04/16 01:29:30;;;;;;;11.30;5.43;;;;;;;;;;5027074;28;20092;-62
2022/04/16 01:31:57;;;;;;;12.30;5.75;;;;;;;;;;5033222;28;20122;-56
2022/04/16 01:34:25;;;;;;;12.52;6.00;;;;;;;;;;5031420;28;20049;-57
2022/04/16 01:36:52;;;;;;;11.87;5.07;;;;;;;;;;5031342;28;20145;-57
2022/04/16 01:39:19;;;;;;;12.05;6.03;;;;;;;;;;5031969;28;20071;-61
2022/04/16 01:41:47;;;;;;;12.35;5.55;;;;;;;;;;5026860;28;20052;-58
2022/04/16 01:44:13;;;;;;;10.23;4.50;;;;;;;;;;5049649;28;20098;-56
2022/04/16 01:46:40;;;;;;;11.88;6.55;;;;;;;;;;5027126;28;20057;-60
2022/04/16 01:49:07;;;;;;;12.38;6.35;;;;;;;;;;5032125;28;20260;-60
2022/04/16 01:51:33;;;;;;;14.15;6.63;;;;;;;;;;5027110;28;20057;-58
2022/04/16 01:54:00;;;;;;;9.93;5.00;;;;;;;;;;5033535;28;20057;-60
2022/04/16 01:56:27;;;;;;;14.63;6.70;;;;;;;;;;5026855;28;20057;-62
2022/04/16 01:58:55;;;;;;;11.10;6.18;;;;;;;;;;5033515;28;20068;-60
2022/04/16 02:01:22;;;;;;;12.03;6.10;;;;;;;;;;5025621;28;20052;-62
2022/04/16 02:03:48;;;;;;;12.68;6.43;;;;;;;;;;5051245;28;20310;-56
2022/04/16 02:06:17;;;;;;;15.00;6.80;;;;;;;;;;5029009;28;20053;-64
2022/04/16 02:08:44;;;;;;;18.85;6.63;;;;;;;;;;5052542;28;20298;-59
2022/04/16 02:11:10;;;;;;;12.32;6.43;;;;;;;;;;5025389;28;20053;-60
2022/04/16 02:13:37;;;;;;;12.57;6.00;;;;;;;;;;5029330;28;20080;-63
2022/04/16 02:16:07;;;;;;;12.73;5.55;;;;;;;;;;5025983;28;20055;-60
2022/04/16 02:18:34;;;;;;;10.15;4.50;;;;;;;;;;5031760;28;20111;-59
2022/04/16 02:21:00;;;;;;;13.15;6.28;;;;;;;;;;5032426;28;20061;-64
2022/04/16 02:23:27;;;;;;;12.75;6.00;;;;;;;;;;5041464;28;20071;-56
2022/04/16 02:25:55;;;;;;;12.75;6.13;;;;;;;;;;5033654;28;20056;-64
2022/04/16 02:28:21;;;;;;;11.70;5.32;;;;;;;;;;5026068;28;20156;-56
2022/04/16 02:30:49;;;;;;;11.45;4.88;;;;;;;;;;5048488;28;20063;-59
2022/04/16 02:33:17;;;;;;;11.85;5.68;;;;;;;;;;5042744;28;20064;-59
2022/04/16 02:35:46;;;;;;;14.90;6.93;;;;;;;;;;5032019;28;20073;-60
2022/04/16 02:38:13;;;;;;;9.55;4.85;;;;;;;;;;5025203;28;20311;-62
2022/04/16 02:40:39;;;;;;;14.70;7.28;;;;;;;;;;5031706;28;20132;-62
2022/04/16 02:43:06;;;;;;;20.92;7.82;;;;;;;;;;5024857;28;20075;-62
2022/04/16 02:48:19;;;;;;;16.30;7.40;;;;;;;;;;5023852;28;20150;-65
2022/04/16 02:50:45;;;;;;;10.35;5.20;;;;;;;;;;5031494;28;20124;-60
2022/04/16 02:53:12;;;;;;;14.02;6.63;;;;;;;;;;5025183;28;20107;-61
2022/04/16 02:55:41;;;;;;;14.85;6.75;;;;;;;;;;5047672;28;20084;-63
2022/04/16 02:58:08;;;;;;;12.52;5.80;;;;;;;;;;5042689;28;20057;-62
2022/04/16 03:00:34;;;;;;;11.13;4.78;;;;;;;;;;5048480;28;20048;-60
2022/04/16 03:03:01;;;;;;;16.85;8.07;;;;;;;;;;5042372;28;20063;-63
2022/04/16 03:05:30;;;;;;;13.88;6.72;;;;;;;;;;5032132;28;20111;-64
2022/04/16 03:07:57;;;;;;;11.27;5.75;;;;;;;;;;5031081;28;20065;-59
2022/04/16 03:10:23;;;;;;;10.95;5.35;;;;;;;;;;5041778;28;20052;-56
2022/04/16 03:12:52;;;;;;;18.33;7.85;;;;;;;;;;5030805;28;20132;-59
2022/04/16 03:18:04;;;;;;;13.13;6.25;;;;;;;;;;5010472;28;20049;-59
2022/04/16 03:20:32;;;;;;;10.23;5.10;;;;;;;;;;5032338;28;20072;-56
2022/04/16 03:22:59;;;;;;;10.40;5.43;;;;;;;;;;5047709;28;20052;-60
2022/04/16 03:25:27;;;;;;;15.48;6.65;;;;;;;;;;5025193;28;20154;-56
2022/04/16 03:27:54;;;;;;;12.93;5.55;;;;;;;;;;5047355;28;20057;-60
2022/04/16 03:30:23;;;;;;;15.20;7.05;;;;;;;;;;5025172;28;20067;-57
2022/04/16 03:32:50;;;;;;;13.88;7.07;;;;;;;;;;5031143;28;20049;-56
2022/04/16 03:35:19;;;;;;;15.00;7.40;;;;;;;;;;5039409;28;20103;-59
2022/04/16 03:37:47;;;;;;;14.95;6.93;;;;;;;;;;5030096;28;20084;-63
2022/04/16 03:40:14;;;;;;;13.10;6.60;;;;;;;;;;5031614;28;20055;-62
2022/04/16 03:42:46;;;;;;;13.65;6.18;;;;;;;;;;5024126;28;20083;-58
2022/04/16 03:45:18;;;;;;;18.10;6.20;;;;;;;;;;5027821;28;20075;-59
2022/04/16 03:47:45;;;;;;;17.15;6.45;;;;;;;;;;5046724;28;20056;-57
2022/04/16 03:50:12;;;;;;;15.77;7.47;;;;;;;;;;5041050;28;20069;-58
2022/04/16 03:52:42;;;;;;;16.10;7.03;;;;;;;;;;5046901;28;20084;-57
2022/04/16 04:00:42;;;;;;;12.88;6.05;;;;;;;;;;5022727;28;19924;-58
2022/04/16 04:03:09;;;;;;;12.93;5.90;;;;;;;;;;5030141;28;20041;-59
2022/04/16 04:05:37;;;;;;;13.77;6.28;;;;;;;;;;5024379;28;20045;-59
2022/04/16 04:08:07;;;;;;;13.65;6.10;;;;;;;;;;5029543;28;20037;-58
2022/04/16 04:10:38;;;;;;;14.85;6.57;;;;;;;;;;5024578;28;20079;-60
2022/04/16 04:13:05;;;;;;;17.02;7.00;;;;;;;;;;5017335;28;20068;-57
2022/04/16 04:15:32;;;;;;;17.15;7.15;;;;;;;;;;5010236;28;20131;-60
2022/04/16 04:17:59;;;;;;;12.60;6.57;;;;;;;;;;5023105;28;20061;-57
2022/04/16 04:20:26;;;;;;;15.98;7.22;;;;;;;;;;5045804;28;20075;-57
2022/04/16 04:22:55;;;;;;;15.10;7.05;;;;;;;;;;5040358;28;20056;-54
2022/04/16 04:25:22;;;;;;;;;;;;;;;;;;5046748;28;20053;-58
2022/04/16 04:27:52;;;;;;;19.58;7.80;;;;;;;;;;5023332;28;19920;-54
2022/04/16 04:30:19;;;;;;;16.67;8.35;;;;;;;;;;5030100;28;20068;-56
2022/04/16 04:32:46;;;;;;;12.82;5.70;;;;;;;;;;5020811;28;20053;-60
2022/04/16 04:35:15;;;;;;;14.45;6.72;;;;;;;;;;5027356;28;20046;-59
2022/04/16 04:37:42;;;;;;;12.65;6.03;;;;;;;;;;5038279;28;20061;-63
2022/04/16 04:40:09;;;;;;;12.82;6.32;;;;;;;;;;5027466;28;20122;-62
2022/04/16 04:42:36;;;;;;;16.85;7.85;;;;;;;;;;5011215;28;20130;-57
2022/04/16 04:45:09;;;;;;;15.95;7.40;;;;;;;;;;5046611;28;20064;-52
2022/04/16 04:47:35;;;;;;;13.15;5.90;;;;;;;;;;5037395;28;20136;-58
2022/04/16 04:50:02;;;;;;;15.93;7.38;;;;;;;;;;5010712;28;20053;-62
2022/04/16 04:52:29;;;;;;;15.68;7.93;;;;;;;;;;5016319;28;20049;-57
2022/04/16 04:55:00;;;;;;;14.82;7.63;;;;;;;;;;5047087;28;20140;-58
2022/04/16 04:57:27;;;;;;;15.82;8.23;;;;;;;;;;5040950;28;20051;-62
2022/04/16 04:59:54;;;;;;;19.58;8.52;;;;;;;;;;5030096;28;20052;-56
2022/04/16 05:02:22;;;;;;;14.68;6.63;;;;;;;;;;5031278;28;20128;-54
2022/04/16 05:04:49;;;;;;;16.25;7.90;;;;;;;;;;5028144;28;20131;-56
2022/04/16 05:07:15;;;;;;;12.45;5.50;;;;;;;;;;5035083;28;20164;-54
2022/04/16 05:09:42;;;;;;;15.07;6.55;;;;;;;;;;5044219;28;20136;-62
2022/04/16 05:12:09;;;;;;;16.15;7.55;;;;;;;;;;5030205;28;20556;-63
2022/04/16 05:14:36;;;;;;;16.83;7.55;;;;;;;;;;5021390;28;20057;-55
2022/04/16 05:17:02;;;;;;;16.90;6.53;;;;;;;;;;5050237;28;20053;-58
2022/04/16 05:19:31;;;;;;;18.40;8.90;;;;;;;;;;5027239;28;20052;-57
2022/04/16 05:21:58;;;;;;;17.52;8.13;;;;;;;;;;5049955;28;20057;-56
2022/04/16 05:24:25;;;;;;;16.05;6.60;;;;;;;;;;5043622;28;20060;-57
2022/04/16 05:26:51;;;;;;;18.35;8.40;;;;;;;;;;5049906;28;20129;-59
2022/04/16 05:29:18;;;;;;;24.30;8.68;;;;;;;;;;5043493;28;20052;-57
2022/04/16 05:31:45;;;;;;;18.17;7.05;;;;;;;;;;5048770;28;20053;-63
2022/04/16 05:34:20;;;;;;;16.45;7.18;;;;;;;;;;5026635;28;20144;-58
2022/04/16 05:36:49;;;;;;;22.60;9.00;;;;;;;;;;5032934;28;20064;-59
2022/04/16 05:39:15;;;;;;;15.70;6.65;;;;;;;;;;5042783;28;20141;-61
2022/04/16 05:41:42;;;;;;;15.52;7.40;;;;;;;;;;5032466;28;20120;-58
2022/04/16 05:44:09;;;;;;;20.30;9.70;;;;;;;;;;5027480;28;20056;-55
2022/04/16 05:46:35;;;;;;;16.77;7.75;;;;;;;;;;5047846;28;20095;-60
2022/04/16 05:49:02;;;;;;;23.30;9.98;;;;;;;;;;5048230;28;20091;-58
2022/04/16 05:51:29;;;;;;;18.95;9.40;;;;;;;;;;5022639;28;20048;-56
2022/04/16 05:53:57;;;;;;;16.70;7.20;;;;;;;;;;5011880;28;20091;-62
2022/04/16 05:56:23;;;;;;;18.65;8.63;;;;;;;;;;5022530;28;20136;-55
2022/04/16 05:58:50;;;;;;;17.60;8.18;;;;;;;;;;5048650;28;20256;-55
2022/04/16 06:01:17;;;;;;;14.32;6.97;;;;;;;;;;5043198;28;20053;-57
2022/04/16 06:03:43;;;;;;;13.70;7.00;;;;;;;;;;5032766;28;20073;-54
2022/04/16 06:06:10;;;;;;;20.05;8.98;;;;;;;;;;5024465;28;20042;-55
2022/04/16 06:08:37;;;;;;;14.48;7.15;;;;;;;;;;5028743;28;20050;-57
2022/04/16 06:11:05;;;;;;;16.63;7.35;;;;;;;;;;5039681;28;20071;-53
2022/04/16 06:13:31;;;;;;;16.27;8.82;;;;;;;;;;5027635;28;20049;-52
2022/04/16 06:15:58;;;;;;;22.67;9.38;;;;;;;;;;5026559;28;20135;-55
2022/04/16 06:18:25;;;;;;;20.92;9.15;;;;;;;;;;5012307;28;20041;-58
2022/04/16 06:20:51;;;;;;;13.82;7.13;;;;;;;;;;5009826;28;20049;-59
2022/04/16 06:23:19;;;;;;;17.88;8.85;;;;;;;;;;5048937;28;20084;-59
2022/04/16 06:25:47;;;;;;;18.63;8.85;;;;;;;;;;5027867;28;20049;-57
2022/04/16 06:28:16;;;;;;;17.90;8.15;;;;;;;;;;5012547;28;20049;-54
2022/04/16 06:30:42;;;;;;;15.18;7.15;;;;;;;;;;5012544;28;20053;-56
2022/04/16 06:33:09;;;;;;;22.80;10.23;;;;;;;;;;5025626;28;20049;-58
2022/04/16 06:35:36;;;;;;;19.02;8.20;;;;;;;;;;5049710;28;20080;-56
2022/04/16 06:38:02;;;;;;;18.80;7.28;;;;;;;;;;5028141;28;20048;-55
2022/04/16 06:40:30;;;;;;;15.90;7.60;;;;;;;;;;5032179;28;20069;-57
2022/04/16 06:42:57;;;;;;;23.63;10.18;;;;;;;;;;5041482;28;20048;-59
2022/04/16 06:45:25;;;;;;;20.60;9.40;;;;;;;;;;5032223;28;20064;-54
2022/04/16 06:47:52;;;;;;;14.60;7.03;;;;;;;;;;5025749;28;20057;-54
2022/04/16 06:50:18;;;;;;;18.65;8.27;;;;;;;;;;5039539;28;20068;-56
2022/04/16 06:52:45;;;;;;;13.48;6.70;;;;;;;;;;5025844;28;20143;-56
2022/04/16 06:55:12;;;;;;;23.38;10.57;;;;;;;;;;5047476;28;20136;-56
2022/04/16 06:57:38;;;;;;;15.40;7.40;;;;;;;;;;5025379;28;20135;-60
2022/04/16 07:00:06;;;;;;;16.27;7.85;;;;;;;;;;5031271;28;20057;-59
2022/04/16 07:02:34;;;;;;;21.70;10.50;;;;;;;;;;5022311;28;20056;-55
2022/04/16 07:05:02;;;;;;;17.63;7.80;;;;;;;;;;5027187;28;20060;-58
2022/04/16 07:07:29;;;;;;;20.63;8.90;;;;;;;;;;5023723;28;20049;-60
2022/04/16 07:09:56;;;;;;;24.48;10.73;;;;;;;;;;5027227;28;20057;-53
2022/04/16 07:12:22;;;;;;;18.70;8.13;;;;;;;;;;5046031;28;20068;-58
2022/04/16 07:14:50;;;;;;;25.23;10.25;;;;;;;;;;5039692;28;20084;-54
2022/04/16 07:17:16;;;;;;;19.15;8.07;;;;;;;;;;5046500;28;20049;-57
2022/04/16 07:19:44;;;;;;;16.92;8.25;;;;;;;;;;5023681;28;20053;-57
2022/04/16 07:22:11;;;;;;;16.65;7.78;;;;;;;;;;5028194;28;20053;-59
2022/04/16 07:24:42;;;;;;;18.50;8.65;;;;;;;;;;5024827;28;20061;-58
2022/04/16 07:27:08;;;;;;;22.45;9.52;;;;;;;;;;5047082;28;20053;-57
2022/04/16 07:29:35;;;;;;;21.05;10.02;;;;;;;;;;5024575;28;20134;-54
2022/04/16 07:32:01;;;;;;;19.52;8.73;;;;;;;;;;5030893;28;20111;-58
2022/04/16 07:34:28;;;;;;;21.02;7.57;;;;;;;;;;5026624;28;20098;-56
2022/04/16 07:36:56;;;;;;;14.07;6.45;;;;;;;;;;5030547;28;20052;-55
2022/04/16 07:39:23;;;;;;;17.17;7.65;;;;;;;;;;5025040;28;20045;-55
2022/04/16 07:41:51;;;;;;;14.70;7.18;;;;;;;;;;5029757;28;20114;-55
2022/04/16 07:44:17;;;;;;;19.27;9.63;;;;;;;;;;5025275;28;20082;-56
2022/04/16 07:46:44;;;;;;;17.83;8.25;;;;;;;;;;5029712;28;20120;-55
2022/04/16 07:49:11;;;;;;;16.73;7.88;;;;;;;;;;5022586;28;20057;-54
2022/04/16 07:51:37;;;;;;;21.33;8.48;;;;;;;;;;5029810;28;20067;-57
2022/04/16 07:54:05;;;;;;;18.00;8.40;;;;;;;;;;5044970;28;20057;-57
2022/04/16 07:56:33;;;;;;;18.57;8.27;;;;;;;;;;5038504;28;20065;-56
2022/04/16 07:59:00;;;;;;;20.15;7.95;;;;;;;;;;5027193;28;20318;-57
2022/04/16 08:01:27;;;;;;;17.33;7.03;;;;;;;;;;5039916;28;20048;-56
2022/04/16 08:03:54;;;;;;;15.40;7.07;;;;;;;;;;5027659;28;20149;-61
2022/04/16 08:06:23;;;;;;;18.08;7.43;;;;;;;;;;5021277;28;20055;-56
2022/04/16 08:08:49;;;;;;;20.30;8.32;;;;;;;;;;5027820;28;20053;-59
2022/04/16 08:11:18;;;;;;;17.52;7.75;;;;;;;;;;5016700;28;20150;-55
2022/04/16 08:13:44;;;;;;;16.58;7.45;;;;;;;;;;5003301;28;20060;-61
2022/04/16 08:16:12;;;;;;;17.90;7.50;;;;;;;;;;5010727;28;20049;-60
2022/04/16 08:18:39;;;;;;;16.20;7.30;;;;;;;;;;5025562;28;20058;-57
2022/04/16 08:21:05;;;;;;;16.77;6.93;;;;;;;;;;5017168;28;20050;-60
2022/04/16 08:23:33;;;;;;;17.33;7.13;;;;;;;;;;5008878;28;20061;-61
2022/04/16 08:26:06;;;;;;;16.27;6.93;;;;;;;;;;5004333;28;20080;-60
2022/04/16 08:28:34;;;;;;;19.48;7.47;;;;;;;;;;5026708;28;20058;-61
2022/04/16 08:31:01;;;;;;;15.63;7.35;;;;;;;;;;5005110;28;20144;-60
2022/04/16 08:33:27;;;;;;;15.85;7.32;;;;;;;;;;5009818;28;20050;-61
2022/04/16 08:35:54;;;;;;;17.42;7.45;;;;;;;;;;5004271;28;20061;-62
2022/04/16 08:38:21;;;;;;;14.00;6.82;;;;;;;;;;5013468;28;20053;-59
2022/04/16 08:40:50;;;;;;;14.30;7.00;;;;;;;;;;5013766;28;20084;-60
2022/04/16 08:43:18;;;;;;;15.40;7.60;;;;;;;;;;5006012;28;20057;-59
2022/04/16 08:45:49;;;;;;;13.05;6.15;;;;;;;;;;5030016;28;20057;-61
2022/04/16 08:48:16;;;;;;;18.35;8.48;;;;;;;;;;5035414;28;20057;-62
2022/04/16 08:50:43;;;;;;;17.15;7.90;;;;;;;;;;5013686;28;20053;-63
2022/04/16 08:53:10;;;;;;;13.93;7.72;;;;;;;;;;5023071;28;20050;-59
2022/04/16 08:55:38;;;;;;;13.88;6.78;;;;;;;;;;5004380;28;20053;-64
2022/04/16 08:58:04;;;;;;;17.80;7.70;;;;;;;;;;5006483;28;20049;-61
2022/04/16 09:00:31;;;;;;;16.27;7.35;;;;;;;;;;5030589;28;20037;-58
2022/04/16 09:03:03;;;;;;;14.60;6.57;;;;;;;;;;5007170;28;20053;-62
2022/04/16 09:05:31;;;;;;;11.70;5.35;;;;;;;;;;5029961;28;20058;-59
2022/04/16 09:08:00;;;;;;;10.05;4.50;;;;;;;;;;5007702;28;20057;-61
2022/04/16 09:10:30;;;;;;;16.55;7.20;;;;;;;;;;5013084;28;20080;-62
2022/04/16 09:12:57;;;;;;;15.18;7.28;;;;;;;;;;5000595;28;20057;-61
2022/04/16 09:15:25;;;;;;;12.88;6.00;;;;;;;;;;5013393;28;20057;-58
2022/04/16 09:18:00;;;;;;;16.92;8.15;;;;;;;;;;5008164;28;20077;-59
2022/04/16 09:20:32;;;;;;;14.77;6.80;;;;;;;;;;5013000;28;20084;-61
2022/04/16 09:23:00;;;;;;;13.13;6.00;;;;;;;;;;5007305;28;20068;-61
2022/04/16 09:25:29;;;;;;;15.60;6.90;;;;;;;;;;5013464;28;20069;-61
2022/04/16 09:27:58;;;;;;;15.95;6.65;;;;;;;;;;5007319;28;20064;-60
2022/04/16 09:30:25;;;;;;;13.23;6.63;;;;;;;;;;5012543;28;20132;-61
2022/04/16 09:32:55;;;;;;;14.82;6.85;;;;;;;;;;5013224;28;20064;-61
2022/04/16 09:35:31;;;;;;;16.42;6.15;;;;;;;;;;5008366;28;20054;-63
2022/04/16 09:37:59;;;;;;;15.20;7.05;;;;;;;;;;5015045;28;20054;-61
2022/04/16 09:40:27;;;;;;;14.07;6.63;;;;;;;;;;5008374;28;20070;-62
2022/04/16 09:42:55;;;;;;;11.30;4.75;;;;;;;;;;5004318;28;20064;-59
2022/04/16 09:45:23;;;;;;;12.48;6.07;;;;;;;;;;4992649;28;20049;-61
2022/04/16 09:47:52;;;;;;;12.15;5.38;;;;;;;;;;5003175;28;20046;-58
2022/04/16 09:50:19;;;;;;;12.25;5.30;;;;;;;;;;4999945;28;20071;-65
2022/04/16 09:52:52;;;;;;;14.07;6.18;;;;;;;;;;5040301;28;20053;-59
2022/04/16 09:55:20;;;;;;;15.18;6.45;;;;;;;;;;5005564;28;20053;-62
2022/04/16 09:57:47;;;;;;;15.02;7.40;;;;;;;;;;5011879;28;20054;-62
2022/04/16 10:00:14;;;;;;;16.17;8.13;;;;;;;;;;5006037;28;20077;-63
2022/04/16 10:02:41;;;;;;;19.95;7.13;;;;;;;;;;5011826;28;20128;-60
2022/04/16 10:05:10;;;;;;;21.13;10.60;;;;;;;;;;5005491;28;20045;-58
2022/04/16 10:07:37;;;;;;;15.13;7.53;;;;;;;;;;5029744;28;20047;-61
2022/04/16 10:10:17;;;;;;;28.50;12.32;;;;;;;;;;5026299;28;20052;-60
2022/04/16 10:13:04;;;;;;;21.65;10.93;;;;;;;;;;5031435;28;20083;-59
2022/04/16 10:15:39;;;;;;;21.45;10.52;;;;;;;;;;5025016;28;20131;-64
2022/04/16 10:18:06;;;;;;;17.80;8.40;;;;;;;;;;5048444;28;20151;-64
2022/04/16 10:20:32;;;;;;;20.83;10.40;;;;;;;;;;5025557;28;20067;-59
2022/04/16 10:23:01;;;;;;;14.73;6.40;;;;;;;;;;5031535;28;20056;-59
2022/04/16 10:25:28;;;;;;;;;;;;;;;;;;5023342;28;20073;-61
2022/04/16 10:28:01;;;;;;;14.52;7.32;;;;;;;;;;5028960;28;19932;-62
2022/04/16 10:30:35;;;;;;;15.40;6.40;;;;;;;;;;5025070;28;20053;-61
2022/04/16 10:33:04;;;;;;;14.32;6.82;;;;;;;;;;5032141;28;20063;-66
2022/04/16 10:35:31;;;;;;;;;;;;;;;;;;5026817;28;20056;-59
2022/04/16 10:37:58;;;;;;;12.80;5.57;;;;;;;;;;5012513;28;19982;-62
2022/04/16 10:40:25;;;;;;;13.38;6.38;;;;;;;;;;5012384;28;20045;-63
2022/04/16 10:42:53;;;;;;;10.40;5.40;;;;;;;;;;5024231;28;20053;-66
2022/04/16 10:45:21;;;;;;;10.73;5.07;;;;;;;;;;5031554;28;20140;-63
2022/04/16 10:47:49;;;;;;;11.38;4.53;;;;;;;;;;5027196;28;20136;-65
2022/04/16 10:50:17;;;;;;;10.82;4.85;;;;;;;;;;5049632;28;20057;-64
2022/04/16 10:52:54;;;;;;;11.27;4.70;;;;;;;;;;5032987;28;20091;-62
2022/04/16 10:55:25;;;;;;;10.60;5.10;;;;;;;;;;5032425;28;20056;-61
2022/04/16 10:58:03;;;;;;;12.30;5.05;;;;;;;;;;5043432;28;20143;-63
2022/04/16 11:00:40;;;;;;;11.97;4.93;;;;;;;;;;5031581;28;20053;-64
2022/04/16 11:03:11;;;;;;;9.95;4.93;;;;;;;;;;5027498;28;20057;-61
2022/04/16 11:05:43;;;;;;;12.23;4.32;;;;;;;;;;5049843;28;20064;-64
2022/04/16 11:08:11;;;;;;;10.52;4.63;;;;;;;;;;5040596;28;20046;-66
2022/04/16 11:10:39;;;;;;;10.25;4.05;;;;;;;;;;5023725;28;20053;-62
2022/04/16 11:13:05;;;;;;;8.87;3.80;;;;;;;;;;5008198;28;20052;-64
2022/04/16 11:15:33;;;;;;;8.75;3.70;;;;;;;;;;5029862;28;20052;-61
2022/04/16 11:18:03;;;;;;;5.85;2.85;;;;;;;;;;5023895;28;20047;-65
2022/04/16 11:20:30;;;;;;;11.48;4.47;;;;;;;;;;5029057;28;20132;-60
2022/04/16 11:22:57;;;;;;;8.43;3.75;;;;;;;;;;5041567;28;20048;-63
2022/04/16 11:25:24;;;;;;;9.88;4.13;;;;;;;;;;5031481;28;20049;-63
2022/04/16 11:36:08;;;;;;;8.75;3.33;;;;;;;;;;5030535;28;20150;-59
2022/04/16 11:38:35;;;;;;;8.52;3.28;;;;;;;;;;5024993;28;20076;-60
2022/04/16 11:41:05;;;;;;;8.57;3.70;;;;;;;;;;5046497;28;20056;-61
2022/04/16 11:43:32;;;;;;;6.75;3.30;;;;;;;;;;5024422;28;20056;-62
2022/04/16 11:46:01;;;;;;;6.15;3.10;;;;;;;;;;5046978;28;20077;-64
2022/04/16 11:48:31;;;;;;;6.22;2.92;;;;;;;;;;5023784;28;20044;-61
2022/04/16 11:50:58;;;;;;;6.28;3.17;;;;;;;;;;5030273;28;20045;-65
2022/04/16 11:53:25;;;;;;;7.38;3.03;;;;;;;;;;5030384;28;20049;-63
2022/04/16 11:55:54;;;;;;;6.18;2.90;;;;;;;;;;5041994;28;20076;-63
2022/04/16 11:58:27;;;;;;;7.82;3.00;;;;;;;;;;5046977;28;20053;-63
2022/04/16 12:00:55;;;;;;;6.57;2.92;;;;;;;;;;5040805;28;20083;-61
2022/04/16 12:03:22;;;;;;;7.32;3.00;;;;;;;;;;5030384;28;20107;-60
2022/04/16 12:05:51;;;;;;;6.18;2.97;;;;;;;;;;5019041;28;20060;-62
2022/04/16 12:08:20;;;;;;;9.80;3.22;;;;;;;;;;5031105;28;20059;-62
2022/04/16 12:10:46;;;;;;;9.02;2.58;;;;;;;;;;5038253;28;20053;-65
2022/04/16 12:13:14;;;;;;;5.82;2.85;;;;;;;;;;5044590;28;20056;-58
2022/04/16 12:15:42;;;;;;;5.85;2.63;;;;;;;;;;5021694;28;20053;-64
2022/04/16 12:18:12;;;;;;;6.25;2.97;;;;;;;;;;5045702;28;20055;-63
2022/04/16 12:20:42;;;;;;;8.27;3.05;;;;;;;;;;5022451;28;20045;-64
2022/04/16 12:23:13;;;;;;;5.47;2.47;;;;;;;;;;5029573;28;20068;-61
2022/04/16 12:25:41;;;;;;;6.88;2.38;;;;;;;;;;5039132;28;20045;-62
2022/04/16 12:28:10;;;;;;;7.25;3.10;;;;;;;;;;5028056;28;20057;-60
2022/04/16 12:30:37;;;;;;;6.03;2.85;;;;;;;;;;5022811;28;20105;-62
2022/04/16 12:33:05;;;;;;;7.35;2.45;;;;;;;;;;5045143;28;20055;-58
2022/04/16 12:35:32;;;;;;;6.13;2.63;;;;;;;;;;5023576;28;20045;-58
2022/04/16 12:37:59;;;;;;;5.43;2.25;;;;;;;;;;5046085;28;20041;-59
2022/04/16 12:40:27;;;;;;;7.38;2.53;;;;;;;;;;5024623;28;20048;-62
2022/04/16 12:42:54;;;;;;;;;;;;;;;;;;5027394;28;20053;-60
2022/04/16 12:45:22;;;;;;;7.55;2.42;;;;;;;;;;5028028;28;19931;-60
2022/04/16 12:47:49;;;;;;;4.75;2.08;;;;;;;;;;5023446;28;20049;-66
2022/04/16 12:50:15;;;;;;;7.57;2.30;;;;;;;;;;5029058;28;20076;-59
2022/04/16 12:52:42;;;;;;;5.55;2.45;;;;;;;;;;5023010;28;20089;-60
2022/04/16 12:55:10;;;;;;;6.63;2.33;;;;;;;;;;5044721;28;20064;-61
2022/04/16 12:57:38;;;;;;;4.55;2.30;;;;;;;;;;5022336;28;20064;-64
2022/04/16 13:00:06;;;;;;;4.75;2.03;;;;;;;;;;5028618;28;20056;-61
2022/04/16 13:02:33;;;;;;;6.78;2.50;;;;;;;;;;5022742;28;20053;-65
2022/04/16 13:05:00;;;;;;;6.40;2.10;;;;;;;;;;5038646;28;20118;-60
2022/04/16 13:07:26;;;;;;;6.10;2.67;;;;;;;;;;4998554;28;20057;-63
2022/04/16 13:09:53;;;;;;;4.35;1.90;;;;;;;;;;4989773;28;20137;-64
2022/04/16 13:12:20;;;;;;;5.32;1.90;;;;;;;;;;4983905;28;20050;-63
2022/04/16 13:14:48;;;;;;;6.63;2.55;;;;;;;;;;4989518;28;20053;-60
2022/04/16 13:17:14;;;;;;;4.00;1.95;;;;;;;;;;4998932;28;20054;-59
2022/04/16 13:19:41;;;;;;;6.18;2.33;;;;;;;;;;4989054;28;20076;-61
2022/04/16 13:22:08;;;;;;;6.05;2.35;;;;;;;;;;4983850;28;20054;-60
2022/04/16 13:24:36;;;;;;;4.63;1.80;;;;;;;;;;4992576;28;20058;-63
2022/04/16 13:27:05;;;;;;;5.47;2.13;;;;;;;;;;4991887;28;20116;-59
2022/04/16 13:29:32;;;;;;;4.70;2.40;;;;;;;;;;4986020;28;20064;-61
2022/04/16 13:32:00;;;;;;;5.60;2.30;;;;;;;;;;4992647;28;20060;-60
2022/04/16 13:34:27;;;;;;;5.38;2.10;;;;;;;;;;4988541;28;20046;-60
2022/04/16 13:36:55;;;;;;;4.10;1.83;;;;;;;;;;4992897;28;20062;-61
2022/04/16 13:42:05;;;;;;;10.00;2.20;;;;;;;;;;5007723;28;20054;-63
2022/04/16 13:44:32;;;;;;;4.70;2.03;;;;;;;;;;4986905;28;20177;-64
2022/04/16 13:47:00;;;;;;;3.92;2.00;;;;;;;;;;5009672;28;20059;-63
2022/04/16 13:49:27;;;;;;;5.97;1.95;;;;;;;;;;4986561;28;20136;-59
2022/04/16 13:51:53;;;;;;;5.72;1.95;;;;;;;;;;4992337;28;20049;-62
2022/04/16 13:54:20;;;;;;;3.95;1.90;;;;;;;;;;5018169;28;20046;-61
2022/04/16 13:56:47;;;;;;;7.43;2.75;;;;;;;;;;4984322;28;20050;-60
2022/04/16 13:59:15;;;;;;;3.97;1.88;;;;;;;;;;4985259;28;20168;-61
2022/04/16 14:01:42;;;;;;;4.32;1.92;;;;;;;;;;5008708;28;20165;-58
2022/04/16 14:04:10;;;;;;;3.83;2.15;;;;;;;;;;4994450;28;20050;-64
2022/04/16 14:06:37;;;;;;;3.88;1.67;;;;;;;;;;5026895;28;20180;-65
2022/04/16 14:09:04;;;;;;;6.10;1.70;;;;;;;;;;5022098;28;20056;-63
2022/04/16 14:11:30;;;;;;;7.18;1.92;;;;;;;;;;5027980;28;20053;-62
2022/04/16 14:13:57;;;;;;;5.65;2.63;;;;;;;;;;5012859;28;20056;-59
2022/04/16 14:16:26;;;;;;;5.90;1.88;;;;;;;;;;5004586;28;20120;-64
2022/04/16 14:18:53;;;;;;;4.18;1.90;;;;;;;;;;5028844;28;20052;-64
2022/04/16 14:21:21;;;;;;;4.40;1.90;;;;;;;;;;5022376;28;20049;-61
2022/04/16 14:23:48;;;;;;;11.55;2.28;;;;;;;;;;5028787;28;20053;-64
2022/04/16 14:26:16;;;;;;;8.40;1.70;;;;;;;;;;5022516;28;20053;-66
2022/04/16 14:28:43;;;;;;;;;;;;;;;;;;5027363;28;20054;-60
2022/04/16 14:31:10;;;;;;;4.25;1.90;;;;;;;;;;5022573;28;19924;-60
2022/04/16 14:33:38;;;;;;;4.90;1.42;;;;;;;;;;5011367;28;20058;-66
2022/04/16 14:36:06;;;;;;;5.50;2.10;;;;;;;;;;5019232;28;20076;-64
2022/04/16 14:38:35;;;;;;;6.20;2.05;;;;;;;;;;5008711;28;20050;-61
2022/04/16 14:41:10;;;;;;;6.95;2.20;;;;;;;;;;5004819;28;20053;-60
2022/04/16 14:43:38;;;;;;;4.30;1.88;;;;;;;;;;5008779;28;20049;-62
2022/04/16 14:46:05;;;;;;;4.60;1.80;;;;;;;;;;5005914;28;20049;-62
2022/04/16 14:48:32;;;;;;;5.23;2.00;;;;;;;;;;5027347;28;20041;-60
2022/04/16 14:51:01;;;;;;;3.92;1.60;;;;;;;;;;5003695;28;20307;-63
2022/04/16 14:53:27;;;;;;;;;;;;;;;;;;5011511;28;20045;-59
2022/04/16 14:55:55;;;;;;;3.25;1.58;;;;;;;;;;5005148;28;19986;-58
2022/04/16 14:58:22;;;;;;;4.65;1.50;;;;;;;;;;5010450;28;20063;-60
2022/04/16 15:00:48;;;;;;;7.57;2.15;;;;;;;;;;5027330;28;20088;-62